Fairbanks, AK

10:26 PM AKST on December 25, 2014 (GMT -0900)
Fairbanks International | Change Station
CLOSE
Current Station
Airport
Location: Fairbanks,
Elevation: 433 ft
Nearby Weather Stations
Active Advisory: Special Statement

Elev 433 ft 64.80 °N, 147.88 °W | Updated 8 minutes ago

Light Snow
Light Snow Mist
17 °F
Feels Like 17 °F
N
0
Wind Variable Wind from North

Today
High -- | Low -- °F
--% Chance of Precip.
Yesterday
High -- | Low -- °F
Precip. -- in
10:59 AM 2:44 PM
Waxing Crescent, 23% visible
Pressure 29.67 in
Visibility 0.8 miles
Clouds
Dew Point 13 °F
Humidity 84%
Rainfall 0.00 in
Snow Depth Not available.
UV Not available.
Pollen Not available.
Air Quality Not available.
Flu Activity Not available.
SPECI PAFA 260718Z 00000KT 3/4SM R02L/6000VP6000FT -SN BR VV012 M08/M11 A2967 RMK AO2 T10831106

More Conditions Fewer Conditions

Pressure 29.67 in
Visibility 0.8 miles
Clouds
Dew Point 13 °F
Humidity 84%
Rainfall 0.00 in
Snow Depth Not available.
UV Not available.
Pollen Not available.
Air Quality Not available.
Flu Activity Not available.
SPECI PAFA 260718Z 00000KT 3/4SM R02L/6000VP6000FT -SN BR VV012 M08/M11 A2967 RMK AO2 T10831106

More Conditions Fewer Conditions

10-Day Weather Forecast

Almanac

Astronomy

Dec. 25, 2014 Rise Set
Actual Time
Civil Twilight
Nautical Twilight
Astronomical Twilight
Moon
Length of Visible Light
Length of Day
Tomorrow will be .
, % of the Moon is Illuminated

Today's Extremes

State Highs State Lows

Community

WunderPhotos

Upload Photos

1,780,571 photos uploaded!

WunderBlogs® & News

Nearby

Air Quality

  Air Quality AQ Index Pollutant
Not available.

Snow Depth

Station Depth Elevation

Earthquake Activity

City Distance Mag. Time & Date
Minimum magnitude displayed is 2.5.

Coastal Water Temperatures

Place Temperature

Nearby Weather Stations